createdAt,value
2023-04-21T00:05:12.244Z,7.89
2023-04-21T00:11:32.208Z,7.92
2023-04-21T00:17:55.249Z,7.94
2023-04-21T00:24:15.219Z,7.95
2023-04-21T00:30:38.222Z,7.91
2023-04-21T00:36:58.319Z,7.85
2023-04-21T00:43:21.194Z,7.82
2023-04-21T00:49:41.168Z,7.81
2023-04-21T00:56:04.235Z,7.85
2023-04-21T01:02:24.383Z,7.9
2023-04-21T01:08:47.174Z,7.9
2023-04-21T01:15:07.256Z,7.91
2023-04-21T01:21:30.165Z,7.89
2023-04-21T01:27:50.237Z,7.92
2023-04-21T01:34:13.341Z,7.93
2023-04-21T01:40:33.215Z,7.92
2023-04-21T01:46:56.234Z,7.88
2023-04-21T01:53:16.227Z,7.87
2023-04-21T01:59:39.189Z,7.9
2023-04-21T02:05:59.201Z,7.94
2023-04-21T02:12:22.192Z,7.93
2023-04-21T02:18:42.187Z,7.9
2023-04-21T02:25:05.232Z,7.82
2023-04-21T02:31:25.309Z,7.75
2023-04-21T02:37:48.234Z,7.69
2023-04-21T02:44:08.226Z,7.56
2023-04-21T02:50:31.213Z,7.43
2023-04-21T02:56:51.200Z,7.3
2023-04-21T03:03:14.299Z,7.22
2023-04-21T03:09:34.213Z,7.14
2023-04-21T03:32:22.238Z,6.85
2023-04-21T03:38:45.157Z,6.76
2023-04-21T03:45:05.224Z,6.71
2023-04-21T03:51:28.181Z,6.66
2023-04-21T03:57:48.166Z,6.63
2023-04-21T04:04:11.361Z,6.6
2023-04-21T04:10:31.304Z,6.57
2023-04-21T04:16:54.218Z,6.55
2023-04-21T04:23:14.234Z,6.48
2023-04-21T04:29:37.248Z,6.38
2023-04-21T04:35:57.228Z,6.3
2023-04-21T04:42:20.202Z,6.32
2023-04-21T04:48:40.257Z,6.33
2023-04-21T04:55:03.213Z,6.38
2023-04-21T05:01:23.289Z,6.37
2023-04-21T05:07:46.261Z,6.27
2023-04-21T05:14:06.208Z,6.25
2023-04-21T05:20:29.160Z,6.23
2023-04-21T05:26:49.176Z,6.18
2023-04-21T05:33:12.301Z,6.21
2023-04-21T05:39:32.234Z,6.22
2023-04-21T05:45:55.372Z,6.26
2023-04-21T05:52:15.158Z,6.24
2023-04-21T05:58:38.186Z,6.25
2023-04-21T06:04:58.291Z,6.27
2023-04-21T06:11:21.240Z,6.31
2023-04-21T06:17:41.448Z,6.41
2023-04-21T06:24:04.310Z,6.53
2023-04-21T06:30:24.210Z,6.65
2023-04-21T06:36:47.258Z,6.73
2023-04-21T06:43:07.205Z,6.79
2023-04-21T06:49:30.185Z,6.89
2023-04-21T06:55:50.202Z,6.91
2023-04-21T07:02:13.320Z,7
2023-04-21T07:08:33.315Z,7.18
2023-04-21T07:14:56.265Z,7.43
2023-04-21T07:21:16.252Z,7.69
2023-04-21T07:27:39.164Z,7.99
2023-04-21T07:33:59.183Z,8.26
2023-04-21T07:40:22.237Z,8.48
2023-04-21T07:46:42.275Z,8.7
2023-04-21T07:53:05.254Z,8.9
2023-04-21T07:59:25.491Z,9.13
2023-04-21T08:05:48.464Z,9.4
2023-04-21T08:12:08.169Z,9.63
2023-04-21T08:18:31.180Z,9.91
2023-04-21T08:36:05.777Z,10.66
2023-04-21T08:42:23.189Z,11.07
2023-04-21T08:48:43.208Z,11.43
2023-04-21T08:55:06.520Z,11.68
2023-04-21T09:01:26.550Z,11.98
2023-04-21T09:07:49.170Z,12.36
2023-04-21T09:14:09.202Z,12.69
2023-04-21T09:20:32.248Z,12.78
2023-04-21T09:26:52.151Z,12.85
2023-04-21T09:33:24.936Z,13.16
2023-04-21T09:39:46.045Z,13.4
2023-04-21T09:45:58.193Z,13.82
2023-04-21T09:52:19.302Z,14.15
2023-04-21T09:58:41.264Z,14.46
2023-04-21T10:05:01.373Z,14.84
2023-04-21T10:11:24.197Z,15.11
2023-04-21T10:17:44.154Z,15.11
2023-04-21T10:24:07.184Z,15.04
2023-04-21T10:30:27.220Z,15.14
2023-04-21T10:36:50.191Z,15.58
2023-04-21T10:43:10.176Z,15.88
2023-04-21T10:49:33.218Z,16.11
2023-04-21T10:55:53.159Z,16.56
2023-04-21T11:02:17.300Z,16.99
2023-04-21T11:08:38.308Z,17.33
2023-04-21T11:15:00.235Z,17.46
2023-04-21T11:21:20.217Z,17.59
2023-04-21T11:27:43.271Z,17.89
2023-04-21T11:34:03.170Z,18.38
2023-04-21T11:40:26.194Z,18.59
2023-04-21T11:46:46.252Z,18.51
2023-04-21T11:53:09.207Z,18.35
2023-04-21T11:59:29.189Z,18.11
2023-04-21T12:05:52.248Z,18.49
2023-04-21T12:12:12.153Z,19.09
2023-04-21T12:18:36.618Z,19.03
2023-04-21T12:24:55.294Z,18.65
2023-04-21T12:31:18.166Z,18.4
2023-04-21T12:37:38.201Z,18.66
2023-04-21T12:44:01.282Z,19.36
2023-04-21T12:50:21.329Z,19.86
2023-04-21T12:56:44.167Z,19.8
2023-04-21T13:03:04.235Z,19.47
2023-04-21T13:09:27.183Z,19.41
2023-04-21T13:15:47.161Z,19.19
2023-04-21T13:22:10.193Z,19
2023-04-21T13:28:30.186Z,18.8
2023-04-21T13:34:53.148Z,18.77
2023-04-21T13:41:13.199Z,19.36
2023-04-21T13:47:36.200Z,20.07
2023-04-21T13:53:56.180Z,20.73
2023-04-21T14:11:30.148Z,21.04
2023-04-21T14:17:50.180Z,21.06
2023-04-21T14:24:13.189Z,21.06
2023-04-21T14:30:33.219Z,21.13
2023-04-21T14:36:56.229Z,21.09
2023-04-21T14:43:16.209Z,21.11
2023-04-21T14:49:39.183Z,20.91
2023-04-21T14:55:59.211Z,20.38
2023-04-21T15:02:22.566Z,20.37
2023-04-21T15:08:42.190Z,20.68
2023-04-21T15:15:05.197Z,20.94
2023-04-21T15:21:25.180Z,20.4
2023-04-21T15:27:48.182Z,19.85
2023-04-21T15:34:08.190Z,19.98
2023-04-21T15:40:31.173Z,20.08
2023-04-21T15:46:51.241Z,20.48
2023-04-21T15:53:14.162Z,20.57
2023-04-21T15:59:34.201Z,20.36
2023-04-21T16:05:57.369Z,20.32
2023-04-21T16:12:17.150Z,20.4
2023-04-21T16:18:40.192Z,20.31
2023-04-21T16:25:00.372Z,19.72
2023-04-21T16:31:23.298Z,19.34
2023-04-21T16:37:43.173Z,19.68
2023-04-21T16:44:06.177Z,20.7
2023-04-21T16:50:26.189Z,21.26
2023-04-21T16:56:49.153Z,21.59
2023-04-21T17:03:09.319Z,21.41
2023-04-21T17:09:32.166Z,20.95
2023-04-21T17:15:52.144Z,20.54
2023-04-21T17:22:15.207Z,20.14
2023-04-21T17:28:35.151Z,19.56
2023-04-21T17:34:58.202Z,19.02
2023-04-21T17:41:18.198Z,18.63
2023-04-21T17:47:41.200Z,18.28
2023-04-21T17:54:01.196Z,18.01
2023-04-21T18:00:24.181Z,17.8
2023-04-21T18:06:44.186Z,17.63
2023-04-21T18:13:07.192Z,17.42
2023-04-21T18:19:27.162Z,17.2
2023-04-21T18:25:50.192Z,17.01
2023-04-21T18:32:10.239Z,16.88
2023-04-21T18:38:33.188Z,16.81
2023-04-21T18:44:54.831Z,16.78
2023-04-21T18:51:16.156Z,16.69
2023-04-21T18:57:36.227Z,16.25
2023-04-21T19:03:59.444Z,15.54
2023-04-21T19:10:19.179Z,14.93
2023-04-21T19:16:42.249Z,14.49
2023-04-21T19:23:02.151Z,14.13
2023-04-21T19:29:25.193Z,13.91
2023-04-21T19:35:45.179Z,13.7
2023-04-21T19:42:08.168Z,13.49
2023-04-21T20:06:08.143Z,12.92
2023-04-21T20:12:28.149Z,12.88
2023-04-21T20:18:51.189Z,12.88
2023-04-21T20:25:11.217Z,12.77
2023-04-21T20:31:34.180Z,12.51
2023-04-21T20:37:54.175Z,12.29
2023-04-21T20:44:17.182Z,12.11
2023-04-21T20:50:37.157Z,11.92
2023-04-21T20:57:00.161Z,11.75
2023-04-21T21:03:20.434Z,11.61
2023-04-21T21:09:43.207Z,11.54
2023-04-21T21:16:03.169Z,11.47
2023-04-21T21:22:26.195Z,11.41
2023-04-21T21:28:46.171Z,11.35
2023-04-21T21:35:09.156Z,11.22
2023-04-21T21:41:29.261Z,11.08
2023-04-21T21:47:52.205Z,10.88
2023-04-21T21:54:12.155Z,10.72
2023-04-21T22:19:46.169Z,10.44
2023-04-21T22:26:06.186Z,10.35
2023-04-21T22:32:29.182Z,10.21
2023-04-21T22:38:49.236Z,10.07
2023-04-21T22:45:12.216Z,10.01
2023-04-21T22:51:32.214Z,9.95
2023-04-21T22:57:55.169Z,9.95
2023-04-21T23:04:15.248Z,9.96
2023-04-21T23:10:38.174Z,9.89
2023-04-21T23:16:58.278Z,9.86
2023-04-21T23:23:21.163Z,9.81
2023-04-21T23:29:41.382Z,9.76
2023-04-21T23:36:04.216Z,9.65
2023-04-21T23:42:24.196Z,9.52
2023-04-21T23:48:47.213Z,9.39
2023-04-21T23:55:07.214Z,9.29
